UAE24C OMDB-KLAX
Flight info
| Callsign | UAE24C |
|---|---|
| Flight time | N/A |
| Altitude | 34000 |
| Route | ANVIX DCT TARDI DCT BOTAM DCT LAKLU DCT NALKI DCT TOKRA DCT ALROK DCT BOSOB DCT ITRUX DCT PMA DCT SIGRO/N0502F360 DCT WEJ DCT GESON DCT RASDA DCT OTHON DCT VAXOS DCT RDS DCT MES DCT EVIVI DCT OKANA DCT BABIT/N0484F380 DCT ARSIN DCT DITIS DCT KILNU DCT ABGUS DCT DIRBO/M085F380 DCT 62N020W/M086F400 63N030W 63N040W 61N050W DCT SAVRY/N0494F400 DCT LAKES DCT MCKEE DCT SOCAN DCT PEMLU DCT YSP DCT DLH DCT SNY DCT DBL DCT CHESZ Q88 HAKMN ANJLL4 |
| Aircraft | A388/J-SADE2E3FGHIJ3J4J5M1RWXY/LB1D1 |
Departure
| Time | 2026-05-05 13:46 |
|---|---|
| Airport | Dubai International Airport (OMDB) |
Arrival
| Time | N/A |
|---|---|
| Airport | Los Angeles International Airport (KLAX) |
| Time | Latitude | Longitude | Altitude | Speed | Heading |
|---|---|---|---|---|---|
| 2026-05-05 13:06 | 25.25620 | 55.37239 | 28 ft | 0 kts | 29° |
| 2026-05-05 13:12 | 25.23654 | 55.40113 | 65 ft | 0 kts | 121° |
| 2026-05-05 13:28 | 25.23655 | 55.40112 | 76 ft | 2 kts | 121° |
| 2026-05-05 13:28 | 25.23667 | 55.40089 | 70 ft | 1 kts | 121° |
| 2026-05-05 13:28 | 25.23681 | 55.40070 | 65 ft | 4 kts | 146° |
| 2026-05-05 13:29 | 25.23704 | 55.40060 | 65 ft | 4 kts | 184° |
| 2026-05-05 13:29 | 25.23727 | 55.40068 | 65 ft | 4 kts | 211° |
| 2026-05-05 13:29 | 25.23750 | 55.40083 | 65 ft | 4 kts | 211° |
| 2026-05-05 13:29 | 25.23771 | 55.40098 | 65 ft | 2 kts | 211° |
| 2026-05-05 13:30 | 25.23772 | 55.40099 | 65 ft | 0 kts | 211° |
| 2026-05-05 13:33 | 25.23771 | 55.40098 | 65 ft | 1 kts | 211° |
| 2026-05-05 13:33 | 25.23767 | 55.40095 | 65 ft | 0 kts | 211° |
| 2026-05-05 13:33 | 25.23763 | 55.40093 | 65 ft | 3 kts | 211° |
| 2026-05-05 13:34 | 25.23762 | 55.40091 | 65 ft | 0 kts | 211° |
| 2026-05-05 13:34 | 25.23739 | 55.40066 | 65 ft | 9 kts | 231° |
| 2026-05-05 13:34 | 25.23684 | 55.39991 | 72 ft | 17 kts | 230° |
| 2026-05-05 13:34 | 25.23650 | 55.39900 | 68 ft | 8 kts | 236° |
| 2026-05-05 13:35 | 25.23618 | 55.39861 | 69 ft | 5 kts | 255° |
| 2026-05-05 13:35 | 25.23618 | 55.39819 | 69 ft | 7 kts | 273° |
| 2026-05-05 13:35 | 25.23624 | 55.39768 | 71 ft | 7 kts | 300° |
| 2026-05-05 13:35 | 25.23670 | 55.39697 | 67 ft | 18 kts | 295° |
| 2026-05-05 13:36 | 25.23726 | 55.39604 | 66 ft | 14 kts | 301° |
| 2026-05-05 13:36 | 25.23778 | 55.39509 | 65 ft | 14 kts | 304° |
| 2026-05-05 13:36 | 25.23838 | 55.39416 | 67 ft | 15 kts | 300° |
| 2026-05-05 13:36 | 25.23873 | 55.39304 | 70 ft | 19 kts | 294° |
| 2026-05-05 13:37 | 25.23950 | 55.39148 | 67 ft | 28 kts | 305° |
| 2026-05-05 13:37 | 25.24087 | 55.38958 | 56 ft | 32 kts | 308° |
| 2026-05-05 13:37 | 25.24200 | 55.38762 | 58 ft | 29 kts | 302° |
| 2026-05-05 13:37 | 25.24303 | 55.38581 | 53 ft | 27 kts | 301° |
| 2026-05-05 13:38 | 25.24396 | 55.38410 | 53 ft | 26 kts | 301° |
| 2026-05-05 13:38 | 25.24475 | 55.38261 | 47 ft | 16 kts | 301° |
| 2026-05-05 13:38 | 25.24530 | 55.38161 | 51 ft | 16 kts | 301° |
| 2026-05-05 13:38 | 25.24575 | 55.38076 | 48 ft | 0 kts | 301° |
| 2026-05-05 13:39 | 25.24583 | 55.38061 | 46 ft | 4 kts | 301° |
| 2026-05-05 13:39 | 25.24603 | 55.38030 | 45 ft | 6 kts | 300° |
| 2026-05-05 13:39 | 25.24636 | 55.37990 | 44 ft | 8 kts | 329° |
| 2026-05-05 13:39 | 25.24700 | 55.37961 | 45 ft | 10 kts | 357° |
| 2026-05-05 13:40 | 25.24727 | 55.37972 | 44 ft | 0 kts | 35° |
| 2026-05-05 13:40 | 25.24728 | 55.37973 | 44 ft | 0 kts | 35° |
| 2026-05-05 13:41 | 25.24759 | 55.37997 | 45 ft | 9 kts | 33° |
| 2026-05-05 13:41 | 25.24801 | 55.37992 | 45 ft | 8 kts | 320° |
| 2026-05-05 13:41 | 25.24815 | 55.37980 | 45 ft | 0 kts | 313° |
| 2026-05-05 13:43 | 25.24817 | 55.37977 | 45 ft | 0 kts | 313° |
| 2026-05-05 13:44 | 25.24822 | 55.37972 | 45 ft | 6 kts | 312° |
| 2026-05-05 13:45 | 25.24901 | 55.37850 | 45 ft | 25 kts | 295° |
| 2026-05-05 13:45 | 25.25042 | 55.37584 | 45 ft | 62 kts | 307° |
| 2026-05-05 13:45 | 25.25340 | 55.37061 | 39 ft | 99 kts | 301° |
| 2026-05-05 13:45 | 25.25689 | 55.36435 | 33 ft | 126 kts | 302° |
| 2026-05-05 13:46 | 25.26169 | 55.35576 | 32 ft | 162 kts | 301° |
| 2026-05-05 13:46 | 25.26741 | 55.34558 | 449 ft | 164 kts | 303° |
| 2026-05-05 13:46 | 25.27348 | 55.33447 | 650 ft | 186 kts | 304° |
| 2026-05-05 13:46 | 25.28035 | 55.32191 | 953 ft | 194 kts | 303° |
| 2026-05-05 13:47 | 25.28562 | 55.31223 | 1116 ft | 196 kts | 304° |
| 2026-05-05 13:47 | 25.29254 | 55.30009 | 1393 ft | 193 kts | 306° |
| 2026-05-05 13:47 | 25.29960 | 55.28761 | 1722 ft | 192 kts | 303° |
| 2026-05-05 13:47 | 25.30398 | 55.27320 | 1768 ft | 207 kts | 273° |
| 2026-05-05 13:48 | 25.30056 | 55.25806 | 1837 ft | 218 kts | 239° |
| 2026-05-05 13:48 | 25.29005 | 55.24613 | 1916 ft | 223 kts | 216° |
| 2026-05-05 13:48 | 25.27894 | 55.23744 | 1972 ft | 228 kts | 218° |
| 2026-05-05 13:48 | 25.26719 | 55.22552 | 2009 ft | 233 kts | 231° |
| 2026-05-05 13:49 | 25.25886 | 55.21236 | 2035 ft | 236 kts | 240° |
| 2026-05-05 13:49 | 25.25092 | 55.19580 | 2135 ft | 251 kts | 245° |
| 2026-05-05 13:49 | 25.24264 | 55.17905 | 2309 ft | 263 kts | 232° |
| 2026-05-05 13:49 | 25.22828 | 55.16637 | 2778 ft | 263 kts | 202° |
| 2026-05-05 13:50 | 25.21171 | 55.16255 | 3193 ft | 263 kts | 176° |
| 2026-05-05 13:50 | 25.19409 | 55.16632 | 3691 ft | 260 kts | 153° |
| 2026-05-05 13:50 | 25.18062 | 55.17751 | 4161 ft | 257 kts | 126° |
| 2026-05-05 13:50 | 25.17264 | 55.19505 | 4607 ft | 258 kts | 109° |
| 2026-05-05 13:51 | 25.16598 | 55.21410 | 4790 ft | 272 kts | 113° |
| 2026-05-05 13:51 | 25.15800 | 55.23313 | 5251 ft | 274 kts | 115° |
| 2026-05-05 13:51 | 25.14943 | 55.25188 | 5728 ft | 275 kts | 117° |
| 2026-05-05 13:51 | 25.14067 | 55.27022 | 6225 ft | 276 kts | 118° |
| 2026-05-05 13:52 | 25.13189 | 55.28860 | 6640 ft | 278 kts | 117° |
| 2026-05-05 13:52 | 25.12272 | 55.30772 | 6956 ft | 282 kts | 118° |
| 2026-05-05 13:52 | 25.11396 | 55.32544 | 7020 ft | 283 kts | 118° |
| 2026-05-05 13:52 | 25.10515 | 55.34320 | 7022 ft | 284 kts | 118° |
| 2026-05-05 13:53 | 25.09609 | 55.36151 | 7028 ft | 284 kts | 118° |
| 2026-05-05 13:53 | 25.08729 | 55.37893 | 7024 ft | 283 kts | 119° |
| 2026-05-05 13:53 | 25.07742 | 55.39788 | 7027 ft | 283 kts | 120° |
| 2026-05-05 13:53 | 25.06725 | 55.41653 | 7024 ft | 283 kts | 121° |
| 2026-05-05 13:54 | 25.05698 | 55.43515 | 7114 ft | 285 kts | 121° |
| 2026-05-05 13:54 | 25.04675 | 55.45387 | 7512 ft | 286 kts | 122° |
| 2026-05-05 13:54 | 25.03382 | 55.47040 | 7933 ft | 288 kts | 141° |
| 2026-05-05 13:54 | 25.01831 | 55.48306 | 8386 ft | 290 kts | 143° |
| 2026-05-05 13:55 | 25.00326 | 55.49806 | 8862 ft | 292 kts | 126° |
| 2026-05-05 13:55 | 24.99317 | 55.51729 | 9305 ft | 295 kts | 118° |
| 2026-05-05 13:55 | 24.98399 | 55.53762 | 9774 ft | 297 kts | 117° |
| 2026-05-05 13:55 | 24.97499 | 55.55750 | 9969 ft | 309 kts | 118° |
| 2026-05-05 13:56 | 24.96593 | 55.57731 | 10070 ft | 321 kts | 119° |
| 2026-05-05 13:56 | 24.95520 | 55.59936 | 10203 ft | 333 kts | 120° |
| 2026-05-05 13:56 | 24.94362 | 55.62230 | 10310 ft | 346 kts | 121° |
| 2026-05-05 13:56 | 24.93181 | 55.64554 | 10666 ft | 350 kts | 121° |
| 2026-05-05 13:57 | 24.91986 | 55.66907 | 11083 ft | 352 kts | 121° |
| 2026-05-05 13:57 | 24.90790 | 55.69270 | 11497 ft | 355 kts | 120° |
| 2026-05-05 13:57 | 24.89597 | 55.71615 | 11896 ft | 358 kts | 120° |
| 2026-05-05 13:57 | 24.88539 | 55.73708 | 12256 ft | 360 kts | 120° |
| 2026-05-05 13:58 | 24.87329 | 55.76100 | 12667 ft | 363 kts | 120° |
| 2026-05-05 13:58 | 24.86085 | 55.78568 | 13076 ft | 366 kts | 119° |
| 2026-05-05 13:58 | 24.84855 | 55.80992 | 13501 ft | 369 kts | 119° |
| 2026-05-05 13:58 | 24.83600 | 55.83451 | 13886 ft | 371 kts | 119° |
| 2026-05-05 13:59 | 24.81058 | 55.88466 | 14612 ft | 377 kts | 119° |
| 2026-05-05 13:59 | 24.79827 | 55.90896 | 14721 ft | 379 kts | 119° |
| 2026-05-05 14:00 | 24.76716 | 55.95617 | 14756 ft | 378 kts | 135° |
| 2026-05-05 14:00 | 24.75436 | 55.96928 | 14756 ft | 377 kts | 139° |
| 2026-05-05 14:00 | 24.72826 | 55.99460 | 14755 ft | 377 kts | 138° |
| 2026-05-05 14:00 | 24.70895 | 56.01365 | 14760 ft | 377 kts | 138° |
| 2026-05-05 14:01 | 24.68959 | 56.03307 | 14763 ft | 376 kts | 137° |
| 2026-05-05 14:01 | 24.67034 | 56.05264 | 14770 ft | 376 kts | 137° |
| 2026-05-05 14:01 | 24.65122 | 56.07221 | 14768 ft | 376 kts | 137° |
| 2026-05-05 14:01 | 24.63204 | 56.09191 | 14771 ft | 376 kts | 137° |
| 2026-05-05 14:02 | 24.61297 | 56.11151 | 14773 ft | 376 kts | 137° |
| 2026-05-05 14:02 | 24.59379 | 56.13123 | 14775 ft | 377 kts | 137° |
| 2026-05-05 14:02 | 24.57492 | 56.15077 | 14774 ft | 377 kts | 135° |
| 2026-05-05 14:02 | 24.55755 | 56.17235 | 14781 ft | 377 kts | 128° |
| 2026-05-05 14:03 | 24.54150 | 56.19492 | 14777 ft | 377 kts | 128° |
| 2026-05-05 14:03 | 24.52530 | 56.21787 | 14776 ft | 378 kts | 128° |
| 2026-05-05 14:03 | 24.50914 | 56.24070 | 14783 ft | 378 kts | 128° |
| 2026-05-05 14:03 | 24.49301 | 56.26337 | 14782 ft | 378 kts | 128° |
| 2026-05-05 14:04 | 24.47678 | 56.28605 | 14780 ft | 378 kts | 128° |
| 2026-05-05 14:04 | 24.46055 | 56.30865 | 14775 ft | 378 kts | 128° |
| 2026-05-05 14:04 | 24.44420 | 56.33138 | 14775 ft | 378 kts | 128° |
| 2026-05-05 14:04 | 24.42796 | 56.35394 | 14769 ft | 378 kts | 128° |
| 2026-05-05 14:05 | 24.41162 | 56.37660 | 14767 ft | 378 kts | 128° |
| 2026-05-05 14:05 | 24.39520 | 56.39937 | 14767 ft | 378 kts | 128° |
| 2026-05-05 14:05 | 24.37888 | 56.42199 | 14762 ft | 378 kts | 128° |
| 2026-05-05 14:05 | 24.36259 | 56.44458 | 14758 ft | 378 kts | 128° |
| 2026-05-05 14:06 | 24.34625 | 56.46721 | 14757 ft | 378 kts | 128° |
| 2026-05-05 14:06 | 24.33015 | 56.48951 | 14756 ft | 378 kts | 128° |
| 2026-05-05 14:06 | 24.31379 | 56.51216 | 14750 ft | 378 kts | 128° |
| 2026-05-05 14:06 | 24.29757 | 56.53459 | 14751 ft | 377 kts | 128° |
| 2026-05-05 14:07 | 24.28120 | 56.55724 | 14751 ft | 378 kts | 128° |
| 2026-05-05 14:07 | 24.26490 | 56.57979 | 14754 ft | 378 kts | 128° |
| 2026-05-05 14:07 | 24.24854 | 56.60240 | 14753 ft | 378 kts | 128° |
| 2026-05-05 14:07 | 24.23218 | 56.62501 | 14756 ft | 377 kts | 128° |
| 2026-05-05 14:08 | 24.21581 | 56.64760 | 14758 ft | 377 kts | 128° |
| 2026-05-05 14:08 | 24.19953 | 56.67006 | 14763 ft | 377 kts | 128° |
| 2026-05-05 14:08 | 24.18373 | 56.69184 | 14762 ft | 377 kts | 128° |
| 2026-05-05 14:08 | 24.16714 | 56.71470 | 14768 ft | 377 kts | 128° |
| 2026-05-05 14:09 | 24.15080 | 56.73721 | 14878 ft | 379 kts | 128° |
| 2026-05-05 14:09 | 24.13543 | 56.75838 | 15263 ft | 380 kts | 128° |
| 2026-05-05 14:09 | 24.11911 | 56.78082 | 15629 ft | 383 kts | 128° |
| 2026-05-05 14:09 | 24.10245 | 56.80375 | 15988 ft | 386 kts | 128° |
| 2026-05-05 14:10 | 24.08569 | 56.82680 | 16337 ft | 390 kts | 128° |
| 2026-05-05 14:10 | 24.06869 | 56.85016 | 16723 ft | 392 kts | 128° |
| 2026-05-05 14:10 | 24.05111 | 56.87264 | 17072 ft | 395 kts | 137° |
| 2026-05-05 14:10 | 24.02913 | 56.88966 | 17440 ft | 396 kts | 154° |
| 2026-05-05 14:11 | 24.00356 | 56.89961 | 17796 ft | 398 kts | 168° |
| 2026-05-05 14:11 | 23.97592 | 56.90595 | 18126 ft | 401 kts | 169° |
| 2026-05-05 14:11 | 23.94891 | 56.91238 | 18450 ft | 403 kts | 168° |
| 2026-05-05 14:11 | 23.92135 | 56.91938 | 18777 ft | 404 kts | 167° |
| 2026-05-05 14:12 | 23.90056 | 56.92484 | 19015 ft | 406 kts | 167° |
| 2026-05-05 14:12 | 23.87323 | 56.93202 | 19333 ft | 408 kts | 167° |
| 2026-05-05 14:12 | 23.84559 | 56.93947 | 19646 ft | 410 kts | 167° |
| 2026-05-05 14:12 | 23.81790 | 56.94700 | 19952 ft | 411 kts | 167° |
| 2026-05-05 14:13 | 23.79113 | 56.95428 | 20240 ft | 413 kts | 167° |
| 2026-05-05 14:13 | 23.76291 | 56.96179 | 20550 ft | 415 kts | 167° |
| 2026-05-05 14:13 | 23.73470 | 56.96936 | 20826 ft | 417 kts | 167° |
| 2026-05-05 14:13 | 23.70649 | 56.97699 | 21143 ft | 418 kts | 167° |
| 2026-05-05 14:14 | 23.67863 | 56.98452 | 21429 ft | 420 kts | 168° |
| 2026-05-05 14:14 | 23.65005 | 56.99220 | 21709 ft | 422 kts | 168° |
| 2026-05-05 14:14 | 23.62179 | 56.99976 | 22012 ft | 424 kts | 168° |
| 2026-05-05 14:14 | 23.59314 | 57.00740 | 22307 ft | 426 kts | 168° |
| 2026-05-05 14:15 | 23.56424 | 57.01515 | 22588 ft | 427 kts | 168° |
| 2026-05-05 14:15 | 23.53534 | 57.02291 | 22866 ft | 429 kts | 168° |
| 2026-05-05 14:15 | 23.50619 | 57.03073 | 23140 ft | 431 kts | 168° |
| 2026-05-05 14:15 | 23.47715 | 57.03852 | 23411 ft | 433 kts | 168° |
| 2026-05-05 14:16 | 23.44798 | 57.04632 | 23660 ft | 434 kts | 168° |
| 2026-05-05 14:16 | 23.41859 | 57.05416 | 23883 ft | 436 kts | 168° |
| 2026-05-05 14:16 | 23.38897 | 57.06019 | 24119 ft | 436 kts | 176° |
| 2026-05-05 14:16 | 23.35858 | 57.06117 | 24381 ft | 434 kts | 187° |
| 2026-05-05 14:17 | 23.33870 | 57.05848 | 24531 ft | 432 kts | 193° |
| 2026-05-05 14:17 | 23.29953 | 57.04837 | 24807 ft | 434 kts | 196° |
| 2026-05-05 14:17 | 23.27018 | 57.04066 | 25087 ft | 435 kts | 195° |
| 2026-05-05 14:17 | 23.24067 | 57.03327 | 25295 ft | 437 kts | 195° |
| 2026-05-05 14:18 | 23.21086 | 57.02610 | 25513 ft | 439 kts | 195° |
| 2026-05-05 14:18 | 23.19164 | 57.02155 | 25673 ft | 439 kts | 195° |
| 2026-05-05 14:18 | 23.16210 | 57.01455 | 25905 ft | 441 kts | 195° |
| 2026-05-05 14:18 | 23.13180 | 57.00737 | 26137 ft | 442 kts | 195° |
| 2026-05-05 14:19 | 23.10192 | 57.00039 | 26350 ft | 444 kts | 194° |
| 2026-05-05 14:19 | 23.07163 | 56.99334 | 26619 ft | 445 kts | 194° |
| 2026-05-05 14:19 | 23.04136 | 56.98628 | 26871 ft | 447 kts | 195° |
| 2026-05-05 14:19 | 23.01097 | 56.97920 | 27089 ft | 448 kts | 195° |
| 2026-05-05 14:20 | 22.98015 | 56.97198 | 27343 ft | 450 kts | 195° |
| 2026-05-05 14:20 | 22.94958 | 56.96481 | 27599 ft | 452 kts | 195° |
| 2026-05-05 14:20 | 22.91888 | 56.95763 | 27857 ft | 454 kts | 195° |
| 2026-05-05 14:20 | 22.88791 | 56.95035 | 28109 ft | 455 kts | 196° |
| 2026-05-05 14:21 | 22.85789 | 56.93941 | 28359 ft | 453 kts | 208° |
| 2026-05-05 14:21 | 22.83103 | 56.92204 | 28632 ft | 450 kts | 220° |
| 2026-05-05 14:21 | 22.80833 | 56.89893 | 28919 ft | 448 kts | 232° |
| 2026-05-05 14:21 | 22.79077 | 56.87110 | 29175 ft | 447 kts | 244° |
| 2026-05-05 14:22 | 22.77734 | 56.84119 | 29452 ft | 448 kts | 246° |
| 2026-05-05 14:22 | 22.76398 | 56.81050 | 29746 ft | 450 kts | 246° |
| 2026-05-05 14:22 | 22.75027 | 56.78008 | 30029 ft | 452 kts | 245° |
| 2026-05-05 14:22 | 22.73607 | 56.74969 | 30286 ft | 453 kts | 244° |
| 2026-05-05 14:23 | 22.72149 | 56.71912 | 30542 ft | 455 kts | 244° |
| 2026-05-05 14:23 | 22.70686 | 56.68876 | 30790 ft | 457 kts | 244° |
| 2026-05-05 14:23 | 22.69224 | 56.65847 | 31052 ft | 459 kts | 244° |
| 2026-05-05 14:23 | 22.67719 | 56.62722 | 31315 ft | 460 kts | 244° |
| 2026-05-05 14:24 | 22.66250 | 56.59684 | 31557 ft | 462 kts | 244° |
| 2026-05-05 14:24 | 22.64740 | 56.56566 | 31800 ft | 464 kts | 244° |
| 2026-05-05 14:24 | 22.63253 | 56.53494 | 32058 ft | 466 kts | 244° |
| 2026-05-05 14:24 | 22.61745 | 56.50378 | 32307 ft | 467 kts | 244° |
| 2026-05-05 14:25 | 22.60237 | 56.47262 | 32549 ft | 469 kts | 244° |
| 2026-05-05 14:25 | 22.58720 | 56.44123 | 32784 ft | 471 kts | 244° |
| 2026-05-05 14:25 | 22.57202 | 56.40993 | 33028 ft | 473 kts | 244° |
| 2026-05-05 14:25 | 22.55669 | 56.37830 | 33278 ft | 474 kts | 244° |
| 2026-05-05 14:26 | 22.54131 | 56.34657 | 33513 ft | 476 kts | 244° |
| 2026-05-05 14:26 | 22.52585 | 56.31472 | 33714 ft | 479 kts | 244° |
| 2026-05-05 14:26 | 22.49451 | 56.25011 | 33724 ft | 487 kts | 244° |
| 2026-05-05 14:27 | 22.46296 | 56.18526 | 33723 ft | 487 kts | 244° |
| 2026-05-05 14:27 | 22.43137 | 56.12043 | 33718 ft | 487 kts | 244° |
| 2026-05-05 14:28 | 22.40419 | 56.06452 | 33718 ft | 487 kts | 244° |
| 2026-05-05 14:28 | 22.37278 | 55.99982 | 33715 ft | 486 kts | 244° |
| 2026-05-05 14:29 | 22.34109 | 55.93533 | 33708 ft | 486 kts | 244° |
| 2026-05-05 14:29 | 22.30942 | 55.87082 | 33700 ft | 485 kts | 244° |
| 2026-05-05 14:30 | 22.27784 | 55.80638 | 33703 ft | 486 kts | 244° |
| 2026-05-05 14:30 | 22.24617 | 55.74182 | 33701 ft | 486 kts | 244° |
| 2026-05-05 14:31 | 22.21455 | 55.67748 | 33705 ft | 486 kts | 244° |
| 2026-05-05 14:31 | 22.18280 | 55.61255 | 33707 ft | 486 kts | 245° |
| 2026-05-05 14:32 | 22.15873 | 55.54457 | 33714 ft | 485 kts | 256° |
| 2026-05-05 14:32 | 22.14831 | 55.47352 | 33716 ft | 484 kts | 266° |
| 2026-05-05 14:33 | 22.14330 | 55.40233 | 33721 ft | 484 kts | 266° |
| 2026-05-05 14:33 | 22.13805 | 55.33263 | 33723 ft | 484 kts | 265° |
| 2026-05-05 14:34 | 22.13217 | 55.26018 | 33725 ft | 484 kts | 265° |
| 2026-05-05 14:34 | 22.12616 | 55.18783 | 33723 ft | 484 kts | 265° |
| 2026-05-05 14:35 | 22.12017 | 55.11627 | 33719 ft | 484 kts | 265° |
| 2026-05-05 14:35 | 22.11408 | 55.04389 | 33714 ft | 484 kts | 265° |
| 2026-05-05 14:36 | 22.10796 | 54.97159 | 33712 ft | 483 kts | 265° |
| 2026-05-05 14:36 | 22.10217 | 54.90333 | 33713 ft | 483 kts | 265° |
| 2026-05-05 14:37 | 22.09616 | 54.83230 | 33713 ft | 483 kts | 265° |
| 2026-05-05 14:37 | 22.09012 | 54.76149 | 33708 ft | 482 kts | 265° |
| 2026-05-05 14:38 | 22.08421 | 54.69291 | 33708 ft | 482 kts | 265° |
| 2026-05-05 14:38 | 22.07806 | 54.62172 | 33708 ft | 482 kts | 265° |
| 2026-05-05 14:39 | 22.07177 | 54.54958 | 33712 ft | 482 kts | 265° |
| 2026-05-05 14:39 | 22.06547 | 54.47788 | 33713 ft | 482 kts | 265° |
| 2026-05-05 14:40 | 22.05916 | 54.40613 | 33712 ft | 482 kts | 265° |
| 2026-05-05 14:40 | 22.05278 | 54.33392 | 33714 ft | 482 kts | 265° |
| 2026-05-05 14:41 | 22.04639 | 54.26210 | 33715 ft | 482 kts | 265° |
| 2026-05-05 14:41 | 22.03995 | 54.19004 | 33716 ft | 482 kts | 264° |
| 2026-05-05 14:42 | 22.03350 | 54.11809 | 33714 ft | 482 kts | 264° |
| 2026-05-05 14:42 | 22.02701 | 54.04609 | 33713 ft | 482 kts | 264° |
| 2026-05-05 14:43 | 22.02053 | 53.97456 | 33711 ft | 482 kts | 264° |
| 2026-05-05 14:43 | 22.01401 | 53.90289 | 33713 ft | 481 kts | 264° |
| 2026-05-05 14:44 | 22.00749 | 53.83155 | 33708 ft | 481 kts | 264° |
| 2026-05-05 14:44 | 22.00089 | 53.75969 | 33714 ft | 481 kts | 264° |
| 2026-05-05 14:45 | 21.99480 | 53.69338 | 33706 ft | 481 kts | 264° |
| 2026-05-05 14:45 | 21.98814 | 53.62155 | 33711 ft | 481 kts | 264° |
| 2026-05-05 14:46 | 21.98145 | 53.54995 | 33711 ft | 481 kts | 264° |
| 2026-05-05 14:46 | 21.97479 | 53.47885 | 33712 ft | 480 kts | 264° |
| 2026-05-05 14:47 | 21.96805 | 53.40699 | 33712 ft | 480 kts | 264° |
| 2026-05-05 14:47 | 21.96130 | 53.33553 | 33711 ft | 480 kts | 264° |
| 2026-05-05 14:48 | 21.95495 | 53.26845 | 33711 ft | 480 kts | 264° |
| 2026-05-05 14:48 | 21.94811 | 53.19662 | 33714 ft | 480 kts | 264° |
| 2026-05-05 14:49 | 21.94130 | 53.12569 | 33710 ft | 479 kts | 264° |
| 2026-05-05 14:49 | 21.93442 | 53.05429 | 33711 ft | 479 kts | 264° |
| 2026-05-05 14:50 | 21.92749 | 52.98269 | 33710 ft | 479 kts | 264° |
| 2026-05-05 14:50 | 21.92056 | 52.91133 | 33707 ft | 479 kts | 264° |
| 2026-05-05 14:51 | 21.91365 | 52.84039 | 33710 ft | 479 kts | 264° |
| 2026-05-05 14:51 | 21.90666 | 52.76907 | 33711 ft | 479 kts | 264° |
| 2026-05-05 14:52 | 21.90373 | 52.69743 | 33708 ft | 479 kts | 272° |
| 2026-05-05 14:52 | 21.91315 | 52.62618 | 33710 ft | 480 kts | 280° |
| 2026-05-05 14:53 | 21.92687 | 52.55577 | 33714 ft | 480 kts | 280° |
| 2026-05-05 14:53 | 21.94014 | 52.48575 | 33720 ft | 481 kts | 280° |
| 2026-05-05 14:54 | 21.95320 | 52.41498 | 33719 ft | 481 kts | 280° |
| 2026-05-05 14:54 | 21.96610 | 52.34442 | 33719 ft | 481 kts | 279° |
| 2026-05-05 14:55 | 21.97903 | 52.27351 | 33723 ft | 480 kts | 279° |
| 2026-05-05 14:55 | 21.99179 | 52.20329 | 33722 ft | 480 kts | 279° |
| 2026-05-05 14:56 | 22.00460 | 52.13267 | 33717 ft | 480 kts | 279° |
| 2026-05-05 14:56 | 22.01746 | 52.06160 | 33721 ft | 480 kts | 279° |
| 2026-05-05 14:57 | 22.03015 | 51.99134 | 33713 ft | 480 kts | 279° |
| 2026-05-05 14:57 | 22.04291 | 51.92051 | 33718 ft | 480 kts | 279° |
| 2026-05-05 14:58 | 22.05557 | 51.85001 | 33717 ft | 480 kts | 279° |
| 2026-05-05 14:58 | 22.06816 | 51.77978 | 33721 ft | 480 kts | 279° |
| 2026-05-05 14:59 | 22.08082 | 51.70887 | 33723 ft | 480 kts | 279° |
| 2026-05-05 14:59 | 22.09340 | 51.63831 | 33721 ft | 480 kts | 279° |
| 2026-05-05 15:00 | 22.10390 | 51.57931 | 33722 ft | 480 kts | 279° |
| 2026-05-05 15:00 | 22.11650 | 51.50832 | 33727 ft | 481 kts | 279° |
| 2026-05-05 15:01 | 22.12904 | 51.43751 | 33727 ft | 481 kts | 279° |
| 2026-05-05 15:01 | 22.14155 | 51.36660 | 33727 ft | 481 kts | 279° |
| 2026-05-05 15:02 | 22.15405 | 51.29565 | 33732 ft | 481 kts | 279° |
| 2026-05-05 15:02 | 22.16640 | 51.22527 | 33728 ft | 481 kts | 279° |
| 2026-05-05 15:03 | 22.17883 | 51.15428 | 33729 ft | 481 kts | 279° |
| 2026-05-05 15:03 | 22.19123 | 51.08333 | 33727 ft | 481 kts | 279° |
| 2026-05-05 15:04 | 22.20360 | 51.01232 | 33743 ft | 482 kts | 279° |
| 2026-05-05 15:04 | 22.20976 | 50.97685 | 34050 ft | 482 kts | 279° |
| 2026-05-05 15:04 | 22.21595 | 50.94127 | 34407 ft | 481 kts | 279° |
| 2026-05-05 15:05 | 22.22778 | 50.87302 | 35030 ft | 479 kts | 278° |
| 2026-05-05 15:05 | 22.23383 | 50.83806 | 35348 ft | 478 kts | 278° |
| 2026-05-05 15:05 | 22.23995 | 50.80266 | 35675 ft | 477 kts | 278° |
| 2026-05-05 15:06 | 22.24603 | 50.76743 | 35996 ft | 476 kts | 278° |
| 2026-05-05 15:06 | 22.25209 | 50.73226 | 36301 ft | 475 kts | 278° |
| 2026-05-05 15:06 | 22.25807 | 50.69748 | 36601 ft | 475 kts | 278° |
| 2026-05-05 15:06 | 22.26415 | 50.66212 | 36910 ft | 474 kts | 278° |
| 2026-05-05 15:07 | 22.26998 | 50.62815 | 37194 ft | 473 kts | 278° |
| 2026-05-05 15:07 | 22.27604 | 50.59277 | 37493 ft | 472 kts | 278° |
| 2026-05-05 15:07 | 22.28200 | 50.55798 | 37786 ft | 471 kts | 278° |
| 2026-05-05 15:07 | 22.28794 | 50.52327 | 38066 ft | 471 kts | 278° |
| 2026-05-05 15:08 | 22.29367 | 50.48971 | 38321 ft | 470 kts | 278° |
| 2026-05-05 15:08 | 22.29962 | 50.45503 | 38567 ft | 469 kts | 278° |
| 2026-05-05 15:08 | 22.30558 | 50.42027 | 38790 ft | 468 kts | 278° |
| 2026-05-05 15:08 | 22.31148 | 50.38572 | 38994 ft | 467 kts | 278° |
| 2026-05-05 15:09 | 22.31745 | 50.35060 | 39226 ft | 466 kts | 278° |
| 2026-05-05 15:09 | 22.32323 | 50.31653 | 39437 ft | 465 kts | 278° |
| 2026-05-05 15:09 | 22.32901 | 50.28238 | 39620 ft | 465 kts | 278° |
| 2026-05-05 15:09 | 22.33480 | 50.24811 | 39749 ft | 466 kts | 278° |
| 2026-05-05 15:10 | 22.34063 | 50.21359 | 39916 ft | 466 kts | 278° |
| 2026-05-05 15:10 | 22.34656 | 50.17845 | 40074 ft | 467 kts | 278° |
| 2026-05-05 15:10 | 22.35227 | 50.14444 | 40190 ft | 468 kts | 278° |
| 2026-05-05 15:10 | 22.35809 | 50.10972 | 40313 ft | 469 kts | 278° |
| 2026-05-05 15:11 | 22.36392 | 50.07501 | 40442 ft | 469 kts | 278° |
| 2026-05-05 15:11 | 22.36968 | 50.04061 | 40573 ft | 470 kts | 278° |
| 2026-05-05 15:11 | 22.37558 | 50.00541 | 40699 ft | 471 kts | 278° |
| 2026-05-05 15:11 | 22.38145 | 49.97039 | 40833 ft | 472 kts | 278° |
| 2026-05-05 15:12 | 22.38719 | 49.93605 | 40939 ft | 473 kts | 278° |
| 2026-05-05 15:12 | 22.39308 | 49.90082 | 41069 ft | 473 kts | 278° |
| 2026-05-05 15:12 | 22.39888 | 49.86601 | 41215 ft | 473 kts | 278° |
| 2026-05-05 15:12 | 22.40457 | 49.83190 | 41638 ft | 467 kts | 278° |
| 2026-05-05 15:13 | 22.41033 | 49.79725 | 41726 ft | 466 kts | 278° |
| 2026-05-05 15:13 | 22.42148 | 49.72993 | 41730 ft | 462 kts | 277° |
| 2026-05-05 15:14 | 22.43275 | 49.66130 | 41726 ft | 463 kts | 277° |
| 2026-05-05 15:14 | 22.44170 | 49.60688 | 41724 ft | 462 kts | 277° |
| 2026-05-05 15:15 | 22.45283 | 49.53924 | 41723 ft | 462 kts | 277° |
| 2026-05-05 15:15 | 22.46408 | 49.47107 | 41726 ft | 462 kts | 277° |
| 2026-05-05 15:16 | 22.47532 | 49.40259 | 41723 ft | 462 kts | 277° |
| 2026-05-05 15:16 | 22.48643 | 49.33472 | 41719 ft | 461 kts | 277° |
| 2026-05-05 15:17 | 22.49765 | 49.26575 | 41723 ft | 461 kts | 277° |
| 2026-05-05 15:17 | 22.50858 | 49.19790 | 41722 ft | 461 kts | 277° |
| 2026-05-05 15:18 | 22.51953 | 49.13023 | 41723 ft | 461 kts | 277° |
| 2026-05-05 15:18 | 22.53071 | 49.06184 | 41710 ft | 461 kts | 277° |
| 2026-05-05 15:19 | 22.54175 | 48.99363 | 41704 ft | 461 kts | 277° |
| 2026-05-05 15:19 | 22.55274 | 48.92548 | 41728 ft | 461 kts | 277° |
| 2026-05-05 15:20 | 22.56369 | 48.85726 | 41735 ft | 462 kts | 277° |
| 2026-05-05 15:20 | 22.57459 | 48.78881 | 41745 ft | 464 kts | 277° |
| 2026-05-05 15:21 | 22.58552 | 48.71999 | 41752 ft | 464 kts | 277° |
| 2026-05-05 15:21 | 22.59646 | 48.65120 | 41760 ft | 465 kts | 277° |
| 2026-05-05 15:22 | 22.60738 | 48.58279 | 41757 ft | 464 kts | 277° |
| 2026-05-05 15:22 | 22.61837 | 48.51346 | 41752 ft | 464 kts | 277° |
| 2026-05-05 15:23 | 22.62906 | 48.44513 | 41746 ft | 463 kts | 277° |
| 2026-05-05 15:23 | 22.63981 | 48.37645 | 41737 ft | 461 kts | 277° |
| 2026-05-05 15:24 | 22.65051 | 48.30819 | 41742 ft | 460 kts | 277° |
| 2026-05-05 15:24 | 22.66123 | 48.23994 | 41719 ft | 458 kts | 277° |
| 2026-05-05 15:25 | 22.67171 | 48.17273 | 41714 ft | 458 kts | 277° |
| 2026-05-05 15:25 | 22.68239 | 48.10442 | 41711 ft | 457 kts | 276° |
| 2026-05-05 15:26 | 22.69261 | 48.03676 | 41710 ft | 455 kts | 273° |
| 2026-05-05 15:26 | 22.69680 | 47.96893 | 41708 ft | 454 kts | 271° |
| 2026-05-05 15:27 | 22.70186 | 47.90081 | 41713 ft | 454 kts | 272° |
| 2026-05-05 15:27 | 22.70736 | 47.83682 | 41725 ft | 455 kts | 273° |
| 2026-05-05 15:28 | 22.71336 | 47.76852 | 41724 ft | 455 kts | 272° |
| 2026-05-05 15:28 | 22.71919 | 47.70083 | 41739 ft | 456 kts | 272° |
| 2026-05-05 15:29 | 22.72495 | 47.63236 | 41752 ft | 456 kts | 272° |
| 2026-05-05 15:29 | 22.73058 | 47.56380 | 41759 ft | 457 kts | 272° |
| 2026-05-05 15:30 | 22.73617 | 47.49513 | 41767 ft | 457 kts | 272° |
| 2026-05-05 15:30 | 22.74167 | 47.42712 | 41776 ft | 457 kts | 272° |
| 2026-05-05 15:31 | 22.74720 | 47.35858 | 41803 ft | 456 kts | 272° |
| 2026-05-05 15:31 | 22.75268 | 47.29013 | 41787 ft | 455 kts | 272° |
| 2026-05-05 15:32 | 22.75813 | 47.22187 | 41796 ft | 454 kts | 272° |
| 2026-05-05 15:32 | 22.76686 | 47.15475 | 41788 ft | 457 kts | 283° |
| 2026-05-05 15:33 | 22.78637 | 47.08932 | 41781 ft | 458 kts | 284° |
| 2026-05-05 15:33 | 22.80533 | 47.02394 | 41786 ft | 456 kts | 282° |
| 2026-05-05 15:34 | 22.82290 | 46.95780 | 41784 ft | 455 kts | 282° |
| 2026-05-05 15:34 | 22.83969 | 46.89158 | 41792 ft | 454 kts | 281° |
| 2026-05-05 15:35 | 22.85649 | 46.82579 | 41733 ft | 453 kts | 282° |
| 2026-05-05 15:35 | 22.86506 | 46.79294 | 41427 ft | 451 kts | 282° |
| 2026-05-05 15:35 | 22.87363 | 46.76032 | 40956 ft | 449 kts | 282° |
| 2026-05-05 15:35 | 22.88220 | 46.72770 | 40176 ft | 454 kts | 282° |
| 2026-05-05 15:36 | 22.89073 | 46.69520 | 39609 ft | 454 kts | 282° |
| 2026-05-05 15:36 | 22.89946 | 46.66200 | 39151 ft | 451 kts | 282° |
| 2026-05-05 15:36 | 22.90792 | 46.62981 | 38881 ft | 446 kts | 282° |
| 2026-05-05 15:37 | 22.92477 | 46.56558 | 38823 ft | 452 kts | 282° |
| 2026-05-05 15:37 | 22.94204 | 46.49959 | 38824 ft | 455 kts | 282° |
| 2026-05-05 15:38 | 22.95910 | 46.43466 | 38827 ft | 452 kts | 282° |
| 2026-05-05 15:38 | 22.97634 | 46.36888 | 38827 ft | 453 kts | 282° |
| 2026-05-05 15:39 | 22.99298 | 46.30548 | 38828 ft | 453 kts | 282° |
| 2026-05-05 15:39 | 23.00999 | 46.23965 | 38832 ft | 453 kts | 282° |
| 2026-05-05 15:40 | 23.02684 | 46.17378 | 38832 ft | 453 kts | 282° |
| 2026-05-05 15:40 | 23.04368 | 46.10843 | 38832 ft | 453 kts | 282° |
| 2026-05-05 15:41 | 23.06075 | 46.04274 | 38828 ft | 453 kts | 282° |
| 2026-05-05 15:41 | 23.07783 | 45.97712 | 38827 ft | 452 kts | 282° |
| 2026-05-05 15:42 | 23.09472 | 45.91175 | 38826 ft | 451 kts | 282° |
| 2026-05-05 15:42 | 23.11167 | 45.84646 | 38823 ft | 450 kts | 282° |
| 2026-05-05 15:43 | 23.12876 | 45.78116 | 38810 ft | 449 kts | 282° |
| 2026-05-05 15:43 | 23.14564 | 45.71595 | 38811 ft | 448 kts | 281° |
| 2026-05-05 15:44 | 23.16234 | 45.65062 | 38817 ft | 447 kts | 281° |
| 2026-05-05 15:44 | 23.17872 | 45.58617 | 38820 ft | 447 kts | 281° |
| 2026-05-05 15:45 | 23.19455 | 45.52414 | 38820 ft | 446 kts | 281° |
| 2026-05-05 15:45 | 23.21076 | 45.45909 | 38824 ft | 446 kts | 281° |
| 2026-05-05 15:46 | 23.22725 | 45.39397 | 38829 ft | 446 kts | 281° |
| 2026-05-05 15:46 | 23.24186 | 45.33608 | 38835 ft | 446 kts | 281° |
| 2026-05-05 15:47 | 23.25851 | 45.27216 | 38841 ft | 447 kts | 281° |
| 2026-05-05 15:47 | 23.27549 | 45.20717 | 38849 ft | 447 kts | 281° |
| 2026-05-05 15:48 | 23.29183 | 45.14220 | 38853 ft | 447 kts | 280° |
| 2026-05-05 15:48 | 23.30831 | 45.07712 | 38859 ft | 447 kts | 281° |
| 2026-05-05 15:49 | 23.32455 | 45.01316 | 38863 ft | 446 kts | 281° |
| 2026-05-05 15:49 | 23.34140 | 44.94784 | 38865 ft | 446 kts | 281° |
| 2026-05-05 15:50 | 23.35769 | 44.88294 | 38868 ft | 445 kts | 280° |
| 2026-05-05 15:50 | 23.37353 | 44.81814 | 38873 ft | 445 kts | 280° |
| 2026-05-05 15:51 | 23.38935 | 44.75264 | 38867 ft | 444 kts | 279° |
| 2026-05-05 15:51 | 23.40379 | 44.69308 | 38872 ft | 444 kts | 280° |
| 2026-05-05 15:52 | 23.42028 | 44.62860 | 38873 ft | 445 kts | 281° |
| 2026-05-05 15:52 | 23.43691 | 44.56397 | 38875 ft | 444 kts | 280° |
| 2026-05-05 15:53 | 23.45287 | 44.49975 | 38881 ft | 444 kts | 280° |
| 2026-05-05 15:53 | 23.46894 | 44.43529 | 38883 ft | 444 kts | 280° |
| 2026-05-05 15:54 | 23.48313 | 44.37830 | 38886 ft | 444 kts | 280° |
| 2026-05-05 15:54 | 23.49316 | 44.33846 | 38882 ft | 444 kts | 280° |
| 2026-05-05 15:55 | 23.50349 | 44.29749 | 38883 ft | 444 kts | 280° |
| 2026-05-05 15:55 | 23.51317 | 44.25867 | 38895 ft | 443 kts | 280° |
| 2026-05-05 15:56 | 23.52275 | 44.21984 | 38904 ft | 443 kts | 279° |
| 2026-05-05 15:56 | 23.53254 | 44.17996 | 38898 ft | 442 kts | 279° |
| 2026-05-05 15:57 | 23.54230 | 44.14008 | 38891 ft | 443 kts | 279° |
| 2026-05-05 15:57 | 23.55230 | 44.09913 | 38888 ft | 443 kts | 279° |
| 2026-05-05 15:58 | 23.56257 | 44.05712 | 38892 ft | 442 kts | 279° |
| 2026-05-05 15:58 | 23.57202 | 44.01837 | 38903 ft | 442 kts | 279° |
| 2026-05-05 15:59 | 23.58169 | 43.97856 | 38913 ft | 441 kts | 279° |
| 2026-05-05 15:59 | 23.59391 | 43.92815 | 38897 ft | 441 kts | 279° |
| 2026-05-05 16:00 | 23.60881 | 43.86450 | 38913 ft | 440 kts | 279° |
| 2026-05-05 16:00 | 23.62402 | 43.79985 | 38923 ft | 440 kts | 279° |
| 2026-05-05 16:01 | 23.63954 | 43.73510 | 38926 ft | 440 kts | 279° |
| 2026-05-05 16:01 | 23.65499 | 43.67114 | 38928 ft | 439 kts | 279° |
| 2026-05-05 16:02 | 23.67064 | 43.60639 | 38939 ft | 439 kts | 279° |
| 2026-05-05 16:02 | 23.68605 | 43.54233 | 38946 ft | 439 kts | 279° |
| 2026-05-05 16:03 | 23.70141 | 43.47834 | 38957 ft | 439 kts | 279° |
| 2026-05-05 16:03 | 23.71682 | 43.41397 | 38959 ft | 438 kts | 279° |
| 2026-05-05 16:04 | 23.73165 | 43.35155 | 38967 ft | 438 kts | 279° |
| 2026-05-05 16:04 | 23.74304 | 43.30287 | 38957 ft | 436 kts | 277° |
| 2026-05-05 16:05 | 23.76066 | 43.23940 | 38976 ft | 447 kts | 291° |
| 2026-05-05 16:05 | 23.77769 | 43.21060 | 38959 ft | 459 kts | 302° |
| 2026-05-05 16:05 | 23.79880 | 43.18645 | 38965 ft | 467 kts | 309° |
| 2026-05-05 16:06 | 23.84765 | 43.13827 | 38958 ft | 469 kts | 309° |
| 2026-05-05 16:06 | 23.89497 | 43.08993 | 38964 ft | 467 kts | 308° |
| 2026-05-05 16:07 | 23.94144 | 43.04082 | 38964 ft | 467 kts | 308° |
| 2026-05-05 16:07 | 23.98821 | 42.99100 | 38966 ft | 466 kts | 307° |
| 2026-05-05 16:08 | 24.03421 | 42.94099 | 38961 ft | 466 kts | 307° |
| 2026-05-05 16:08 | 24.08039 | 42.89122 | 38962 ft | 466 kts | 307° |
| 2026-05-05 16:09 | 24.10358 | 42.86641 | 38957 ft | 466 kts | 307° |